• Join FlightAware (Why Join?)
  • Login
  • US Flag 
01:34AM EDT


 

Airport Tracker/Info


-or-


 

Live Flight TrackerFlight Track Log ✈ SKW6197 ✈ 11-May-2013 ✈ KBUR - KSFO

Flight Track Log - Related Links

Times and Time Zones

All times are in EDT time to prevent confusion due to time zone crossing. See the SKW6197 flight status page for this flight to view local times or setup timezone preferences in your user account.

Time Position Orientation Groundspeed Altitude Reporting Facility
EDT Latitude Longitude Course Direction KTS MPH feet Rate Location/Type
02:14PM 34.1731 -118.3589 216° Southwest 212 244 2,200  Level Los Angeles Center
02:15PM 34.1364 -118.4175 233° Southwest 245 282 4,500 3,060 Climbing Los Angeles Center
02:16PM 34.3467 -118.6267 335° Northwest  Level FlightAware Approximate
02:16PM 34.2128 -118.4925 321° Northwest 269 310 9,200  Level Los Angeles Center
02:17PM 34.4478 -118.6822 338° Northwest  Level FlightAware Approximate
02:17PM 34.2833 -118.5378 332° Northwest 284 327 12,000  Level Los Angeles Center
02:18PM 34.5505 -118.7336 338° Northwest  Level FlightAware Approximate
02:18PM 34.3619 -118.5864 333° Northwest 313 360 13,700  Level Los Angeles Center
02:19PM 34.6551 -118.7787 342° North  Level FlightAware Approximate
02:19PM 34.4536 -118.6417 334° Northwest 366 421 15,200  Level Los Angeles Center
02:20PM 34.5492 -118.7011 333° Northwest 387 445 16,700 1,500 Climbing Los Angeles Center
02:21PM 34.6661 -118.7781 332° Northwest 402 463 18,400 1,500 Climbing Los Angeles Center
02:22PM 34.7656 -118.8397 333° Northwest 403 464 19,900 1,440 Climbing Los Angeles Center
02:23PM 34.8600 -118.9089 329° Northwest 401 461 21,400 1,500 Climbing Los Angeles Center
02:24PM 34.9544 -118.9861 326° Northwest 393 452 23,000 1,320 Climbing Los Angeles Center
02:25PM 35.0439 -119.0589 326° Northwest 390 449 24,200 1,020 Climbing Los Angeles Center
02:26PM 35.1347 -119.1347 326° Northwest 396 456 25,200 840 Climbing Los Angeles Center
02:27PM 35.2469 -119.2233 327° Northwest 405 466 26,000 360 Climbing Los Angeles Center
02:28PM 35.3428 -119.3036 326° Northwest 413 475 26,000  Level Los Angeles Center
02:29PM 35.4175 -119.4153 309° West 458 527 26,000  Level Los Angeles Center
02:30PM 35.4314 -119.4708 287° West 452 520 26,000  Level Oakland Center
02:31PM 35.4719 -119.6128 289° West 445 512 26,000  Level Oakland Center
02:32PM 35.5133 -119.7547 290° West 444 511 26,000  Level Oakland Center
02:33PM 35.5544 -119.8942 290° West 441 507 26,000  Level Oakland Center
02:34PM 35.5947 -120.0339 290° West 439 505 26,000  Level Oakland Center
02:35PM 35.6328 -120.1639 290° West 418 481 26,000  Level Oakland Center
02:36PM 35.6764 -120.3186 289° West 407 468 26,000  Level Oakland Center
02:37PM 35.7228 -120.4447 294° West 411 473 26,000  Level Oakland Center
02:38PM 35.7842 -120.5622 303° West 419 482 26,000  Level Oakland Center
02:39PM 35.8581 -120.6672 311° West 410 472 26,000  Level Oakland Center
02:40PM 35.9325 -120.7733 311° West 411 473 26,000  Level Oakland Center
02:41PM 36.0069 -120.8819 310° West 413 475 26,000  Level Oakland Center
02:42PM 36.0803 -120.9858 311° West 408 470 26,000  Level Oakland Center
02:43PM 36.1644 -121.1100 310° West 395 455 26,000  Level Oakland Center
02:44PM 36.2347 -121.2094 311° West 389 448 26,000  Level Oakland Center
02:45PM 36.3028 -121.3094 310° West 383 441 26,000  Level Oakland Center
02:46PM 36.3758 -121.4097 312° West 392 451 26,000 -300 Level Oakland Center
02:47PM 36.4442 -121.5125 310° West 390 449 25,500 -1,140 Descending Oakland Center
02:48PM 36.5119 -121.6117 310° West 381 438 23,700 -1,800 Descending Oakland Center
02:49PM 36.5750 -121.7086 309° West 365 420 21,900 -1,800 Descending Oakland Center
02:50PM 36.6394 -121.8008 311° West 356 410 20,100 -1,740 Descending Oakland Center
02:51PM 36.7000 -121.9000 307° West 336 387 18,700 -1,560 Descending Northern Cal TRACON
02:52PM 36.7667 -121.9667 321° Northwest 337 388 17,200 -1,620 Descending Northern Cal TRACON
02:53PM 36.8500 -122.0000 342° North 337 388 15,500 -1,740 Descending Northern Cal TRACON
02:54PM 36.9500 -122.0167 352° North 337 388 13,800 -1,740 Descending Northern Cal TRACON
02:55PM 37.0333 -122.0333 351° North 335 386 12,100 -1,620 Descending Northern Cal TRACON
02:56PM 37.1167 -122.0667 342° North 327 376 10,800 -1,200 Descending Northern Cal TRACON
02:56PM 37.1500 -122.0706 355° North 325 374 10,600 -600 Descending Oakland Center
02:57PM 37.2189 -122.0881 349° North 263 303 10,000 -840 Descending Oakland Center
02:58PM 37.2797 -122.1236 335° Northwest 252 290 9,000 -1,080 Descending Oakland Center
02:59PM 37.3114 -122.2067 296° West 262 302 7,900 -1,020 Descending Oakland Center
03:00PM 37.3675 -122.2053 North 257 296 7,000 -960 Descending Oakland Center
03:01PM 37.4067 -122.1403 53° Northeast 239 275 6,000 -900 Descending Oakland Center
03:02PM 37.4333 -122.1167 35° Northeast 206 237 5,600 -780 Descending Northern Cal TRACON
03:02PM 37.4547 -122.1289 336° Northwest 210 242 5,200 -1,080 Descending Oakland Center
03:03PM 37.5075 -122.1464 345° North 198 228 4,000 -1,200 Descending Oakland Center